Time;durP1;ratioP1;P1;durP2;ratioP2;P2;SDS_P1;SDS_P2;PMS_P1;PMS_P2;Temp;Humidity;BMP_temperature;BMP_pressure;BME280_temperature;BME280_humidity;BME280_pressure;Samples;Min_cycle;Max_cycle;Signal;HPM_P1;HPM_P2
2021/01/26 00:00:04;;;;;;;4.57;3.70;;;21.40;30.60;;;;;;5052617;28;20121;-49
2021/01/26 00:02:30;;;;;;;5.15;3.97;;;21.50;30.70;;;;;;5056249;28;20150;-50
2021/01/26 00:04:55;;;;;;;5.78;4.13;;;21.40;30.60;;;;;;5047691;28;20021;-53
2021/01/26 00:07:22;;;;;;;5.30;3.97;;;21.40;30.60;;;;;;5056441;28;20206;-47
2021/01/26 00:09:47;;;;;;;7.05;3.72;;;21.40;30.60;;;;;;5054409;28;20064;-54
2021/01/26 00:12:14;;;;;;;5.35;3.60;;;21.40;30.60;;;;;;5055806;28;20061;-55
2021/01/26 00:14:40;;;;;;;5.20;3.67;;;21.40;30.60;;;;;;5054927;28;20045;-46
2021/01/26 00:17:05;;;;;;;4.32;3.10;;;21.40;30.60;;;;;;5056388;28;20029;-47
2021/01/26 00:19:31;;;;;;;4.30;3.13;;;21.40;30.60;;;;;;5049724;28;20029;-51
2021/01/26 00:21:57;;;;;;;5.38;3.40;;;21.40;30.60;;;;;;5056285;28;20317;-52
2021/01/26 00:24:23;;;;;;;5.65;3.55;;;21.40;30.60;;;;;;5038805;28;20045;-46
2021/01/26 00:26:48;;;;;;;3.97;2.97;;;21.40;30.60;;;;;;5040896;28;20390;-47
2021/01/26 00:29:14;;;;;;;4.68;3.40;;;21.40;30.60;;;;;;5048426;28;20329;-49
2021/01/26 00:31:40;;;;;;;4.78;3.33;;;21.30;30.50;;;;;;5054745;28;20033;-47
2021/01/26 00:34:05;;;;;;;4.30;2.90;;;21.40;30.60;;;;;;5055978;28;20126;-51
2021/01/26 00:36:31;;;;;;;4.43;2.85;;;21.30;30.50;;;;;;5052582;28;20141;-49
2021/01/26 00:38:57;;;;;;;3.55;2.45;;;21.30;30.50;;;;;;5041697;28;20029;-54
2021/01/26 00:41:23;;;;;;;4.10;2.88;;;21.30;30.50;;;;;;5054937;28;20032;-53
2021/01/26 00:43:48;;;;;;;3.75;2.63;;;21.30;30.50;;;;;;5037455;28;20175;-46
2021/01/26 00:46:15;;;;;;;4.25;2.35;;;21.30;30.50;;;;;;5038190;28;20352;-51
2021/01/26 00:48:40;;;;;;;3.72;2.40;;;21.30;31.10;;;;;;5053334;28;20021;-47
2021/01/26 00:51:06;;;;;;;3.83;2.35;;;21.30;30.50;;;;;;5034359;28;20126;-51
2021/01/26 00:53:32;;;;;;;4.57;2.70;;;21.30;30.50;;;;;;5037166;28;20025;-56
2021/01/26 00:56:04;;;;;;;4.38;2.72;;;21.30;30.50;;;;;;5035849;28;20045;-52
2021/01/26 00:58:31;;;;;;;4.10;2.58;;;21.30;30.50;;;;;;5030306;28;20118;-49
2021/01/26 01:00:57;;;;;;;3.78;2.70;;;21.20;30.40;;;;;;5018160;28;20057;-48
2021/01/26 01:03:25;;;;;;;4.78;2.50;;;21.20;30.40;;;;;;5024608;28;20108;-50
2021/01/26 01:05:51;;;;;;;3.85;2.35;;;21.20;30.40;;;;;;5035674;28;20092;-58
2021/01/26 01:08:17;;;;;;;4.05;2.60;;;21.20;30.60;;;;;;5040295;28;20437;-46
2021/01/26 01:10:43;;;;;;;3.88;2.33;;;21.20;30.60;;;;;;5035251;28;20065;-48
2021/01/26 01:13:12;;;;;;;3.40;2.20;;;21.20;30.60;;;;;;5048018;28;20071;-53
2021/01/26 01:15:38;;;;;;;3.22;2.33;;;21.20;30.60;;;;;;5054934;28;20444;-49
2021/01/26 01:18:05;;;;;;;3.03;1.90;;;21.20;30.60;;;;;;5032220;28;20049;-54
2021/01/26 01:20:31;;;;;;;2.97;2.17;;;21.20;30.70;;;;;;5035187;28;20073;-57
2021/01/26 01:22:57;;;;;;;3.25;2.10;;;21.20;30.60;;;;;;5034620;28;20138;-47
2021/01/26 01:25:23;;;;;;;3.75;2.45;;;21.20;30.60;;;;;;5017722;28;20025;-51
2021/01/26 01:27:49;;;;;;;4.15;2.50;;;21.10;30.60;;;;;;5025280;28;20040;-51
2021/01/26 01:30:24;;;;;;;3.50;2.13;;;21.20;30.60;;;;;;5040110;28;20348;-53
2021/01/26 01:32:50;;;;;;;2.97;2.05;;;21.10;30.50;;;;;;5050492;28;20095;-47
2021/01/26 01:35:17;;;;;;;3.17;2.08;;;21.10;30.60;;;;;;5034697;28;20045;-52
2021/01/26 01:37:43;;;;;;;3.20;2.00;;;21.10;30.50;;;;;;5037586;28;20053;-51
2021/01/26 01:40:15;;;;;;;3.38;1.98;;;21.10;30.60;;;;;;5054560;28;20040;-52
2021/01/26 01:42:41;;;;;;;3.05;1.98;;;21.10;30.60;;;;;;5054470;28;20036;-48
2021/01/26 01:45:07;;;;;;;4.00;1.73;;;21.10;30.60;;;;;;5054030;28;20051;-47
2021/01/26 01:47:41;;;;;;;2.53;1.77;;;21.00;30.50;;;;;;5038620;28;20037;-50
2021/01/26 01:50:14;;;;;;;3.60;1.88;;;21.00;30.50;;;;;;5054168;28;20029;-52
2021/01/26 01:52:41;;;;;;;2.40;1.55;;;21.00;30.50;;;;;;5047568;28;20029;-51
2021/01/26 01:55:13;;;;;;;4.40;2.22;;;21.00;30.50;;;;;;5053740;28;20120;-48
2021/01/26 01:57:46;;;;;;;2.78;1.50;;;21.00;30.50;;;;;;5049840;28;20021;-48
2021/01/26 02:00:15;;;;;;;3.10;1.67;;;21.00;30.60;;;;;;5034905;28;20485;-45
2021/01/26 02:02:50;;;;;;;2.58;1.48;;;21.00;30.60;;;;;;5040108;28;20044;-48
2021/01/26 02:05:16;;;;;;;2.35;1.50;;;21.00;30.60;;;;;;5034668;28;20037;-44
2021/01/26 02:07:43;;;;;;;3.20;1.63;;;21.00;30.60;;;;;;5043333;28;20444;-51
2021/01/26 02:10:10;;;;;;;3.78;1.50;;;21.00;30.60;;;;;;5034604;28;20345;-47
2021/01/26 02:12:35;;;;;;;4.25;1.88;;;21.00;30.60;;;;;;5037123;28;20033;-48
2021/01/26 02:15:03;;;;;;;2.58;1.55;;;21.00;30.60;;;;;;5034511;28;20037;-46
2021/01/26 02:17:52;;;;;;;2.65;1.60;;;21.00;30.60;;;;;;5041405;28;20334;-49
2021/01/26 02:21:03;;;;;;;2.50;1.42;;;21.00;30.60;;;;;;5053656;28;20068;-53
2021/01/26 02:24:08;;;;;;;2.65;1.50;;;21.00;30.60;;;;;;5017326;28;20045;-49
2021/01/26 02:27:07;;;;;;;2.15;1.40;;;20.90;30.60;;;;;;5054013;28;20387;-52
2021/01/26 02:30:01;;;;;;;3.42;1.60;;;20.90;30.60;;;;;;5047140;28;20037;-50
2021/01/26 02:33:15;;;;;;;2.42;1.65;;;20.90;30.70;;;;;;5038143;28;20048;-50
2021/01/26 02:35:59;;;;;;;3.85;1.48;;;20.90;30.70;;;;;;5044132;28;20053;-45
2021/01/26 02:38:58;;;;;;;3.08;1.25;;;20.90;30.70;;;;;;5053222;28;20037;-48
2021/01/26 02:41:50;;;;;;;3.35;1.50;;;20.80;30.60;;;;;;5056207;28;20325;-47
2021/01/26 02:44:26;;;;;;;3.78;1.40;;;20.80;30.70;;;;;;5029305;28;20044;-46
2021/01/26 02:47:29;;;;;;;1.65;1.15;;;20.80;30.60;;;;;;5048916;28;20025;-45
2021/01/26 02:50:14;;;;;;;2.42;1.60;;;20.80;30.60;;;;;;5024981;28;20132;-44
2021/01/26 02:52:51;;;;;;;1.92;1.17;;;20.80;30.70;;;;;;5041512;28;20033;-52
2021/01/26 02:55:53;;;;;;;2.72;1.20;;;20.80;30.70;;;;;;5037814;28;20041;-47
2021/01/26 02:58:31;;;;;;;2.25;1.30;;;20.80;30.70;;;;;;5049144;28;20073;-46
2021/01/26 03:00:59;;;;;;;3.35;1.38;;;20.80;30.70;;;;;;5038831;28;20108;-49
2021/01/26 03:03:38;;;;;;;2.70;1.33;;;20.80;30.70;;;;;;5038142;28;20043;-48
2021/01/26 03:06:16;;;;;;;2.58;1.10;;;20.80;30.70;;;;;;5038229;28;20033;-45
2021/01/26 03:09:05;;;;;;;1.40;1.02;;;20.80;30.70;;;;;;5042584;28;20463;-46
2021/01/26 03:11:54;;;;;;;2.38;1.25;;;20.80;30.70;;;;;;5011480;28;20106;-46
2021/01/26 03:14:32;;;;;;;3.05;1.20;;;20.80;30.70;;;;;;5037603;28;20048;-45
2021/01/26 03:17:14;;;;;;;2.05;1.30;;;20.80;30.70;;;;;;5028747;28;20037;-50
2021/01/26 03:19:43;;;;;;;1.85;1.08;;;20.70;30.70;;;;;;5044145;28;20395;-43
2021/01/26 03:22:10;;;;;;;2.40;1.13;;;20.70;30.80;;;;;;5046990;28;20103;-47
2021/01/26 03:24:40;;;;;;;2.78;1.55;;;20.70;30.80;;;;;;5056701;28;20025;-51
2021/01/26 03:27:16;;;;;;;1.90;1.02;;;20.80;30.90;;;;;;5037598;28;20441;-52
2021/01/26 03:29:46;;;;;;;2.83;1.33;;;20.70;30.80;;;;;;5037523;28;20044;-52
2021/01/26 03:32:18;;;;;;;3.08;0.90;;;20.70;30.80;;;;;;5050237;28;20411;-51
2021/01/26 03:34:43;;;;;;;2.45;1.17;;;20.70;30.80;;;;;;5056489;28;20041;-47
2021/01/26 03:37:10;;;;;;;2.53;1.02;;;20.70;30.80;;;;;;5049951;28;20061;-51
2021/01/26 03:39:36;;;;;;;1.85;0.90;;;20.70;30.90;;;;;;5049448;28;20033;-48
2021/01/26 03:42:03;;;;;;;2.42;1.20;;;20.70;30.80;;;;;;5043790;28;20081;-48
2021/01/26 03:44:29;;;;;;;2.90;1.30;;;20.60;30.80;;;;;;5041413;28;20034;-49
2021/01/26 03:47:05;;;;;;;2.20;1.10;;;20.70;30.80;;;;;;5027899;28;20047;-50
2021/01/26 03:49:30;;;;;;;2.17;1.10;;;20.70;30.80;;;;;;5056637;28;20044;-50
2021/01/26 03:52:06;;;;;;;1.48;0.73;;;20.70;30.80;;;;;;5043932;28;20364;-46
2021/01/26 03:54:58;;;;;;;1.92;1.00;;;20.70;30.80;;;;;;5043368;28;20048;-46
2021/01/26 03:57:59;;;;;;;3.28;1.13;;;20.60;30.80;;;;;;5055399;28;20482;-56
2021/01/26 04:00:36;;;;;;;1.23;0.80;;;20.60;30.80;;;;;;5038117;28;20104;-52
2021/01/26 04:03:19;;;;;;;1.48;0.75;;;20.60;30.80;;;;;;5054249;28;20064;-47
2021/01/26 04:06:20;;;;;;;2.58;0.90;;;20.60;30.80;;;;;;5049126;28;20143;-46
2021/01/26 04:08:52;;;;;;;2.10;0.75;;;20.60;30.80;;;;;;4974714;28;20077;-48
2021/01/26 04:11:39;;;;;;;2.08;1.00;;;20.60;30.90;;;;;;5028766;28;20041;-53
2021/01/26 04:14:10;;;;;;;2.70;0.95;;;20.60;30.90;;;;;;5054461;28;20028;-52
2021/01/26 04:16:53;;;;;;;1.92;0.95;;;20.60;30.90;;;;;;5044322;28;20037;-50
2021/01/26 04:19:32;;;;;;;1.98;0.90;;;20.60;30.90;;;;;;5038278;28;20033;-53
2021/01/26 04:22:00;;;;;;;1.92;1.10;;;20.60;30.90;;;;;;5050719;28;20100;-50
2021/01/26 04:24:32;;;;;;;3.05;1.25;;;20.60;30.90;;;;;;5046713;28;20045;-48
2021/01/26 04:27:00;;;;;;;2.10;0.90;;;20.60;30.90;;;;;;5036491;28;20028;-47
2021/01/26 04:29:26;;;;;;;1.58;0.77;;;20.50;30.90;;;;;;5041731;28;20063;-47
2021/01/26 04:31:53;;;;;;;2.25;0.90;;;20.50;30.90;;;;;;5054332;28;20045;-51
2021/01/26 04:34:19;;;;;;;2.42;0.80;;;20.50;31.00;;;;;;5028475;28;20453;-46
2021/01/26 04:36:45;;;;;;;2.22;1.20;;;20.50;31.00;;;;;;5035969;28;20107;-49
2021/01/26 04:39:11;;;;;;;2.72;1.02;;;20.50;31.00;;;;;;5036824;28;20456;-43
2021/01/26 04:42:08;;;;;;;2.13;0.85;;;20.50;31.00;;;;;;5051822;28;20029;-44
2021/01/26 04:44:53;;;;;;;2.92;1.02;;;20.50;31.00;;;;;;5046419;28;20029;-54
2021/01/26 04:47:47;;;;;;;2.50;0.90;;;20.50;31.00;;;;;;5038591;28;20101;-48
2021/01/26 04:50:44;;;;;;;1.88;0.75;;;20.50;31.10;;;;;;5025930;28;20465;-47
2021/01/26 04:53:29;;;;;;;1.40;0.82;;;20.50;31.10;;;;;;5035661;28;20093;-43
2021/01/26 04:55:57;;;;;;;;;;;20.50;31.10;;;;;;5045772;28;20033;-49
2021/01/26 04:58:47;;;;;;;2.20;0.88;;;20.40;31.10;;;;;;5055396;28;19904;-46
2021/01/26 05:01:39;;;;;;;2.72;1.10;;;20.40;31.10;;;;;;5051574;28;20041;-52
2021/01/26 05:04:15;;;;;;;1.95;0.70;;;20.40;31.10;;;;;;5055199;28;20124;-50
2021/01/26 05:06:54;;;;;;;2.25;0.95;;;20.40;31.20;;;;;;5038271;28;20440;-47
2021/01/26 05:09:22;;;;;;;2.30;0.85;;;20.40;31.20;;;;;;5051447;28;20043;-50
2021/01/26 05:11:49;;;;;;;1.65;0.70;;;20.40;31.20;;;;;;5054629;28;20041;-48
2021/01/26 05:14:28;;;;;;;2.05;0.93;;;20.40;31.20;;;;;;5039009;28;20432;-46
2021/01/26 05:17:16;;;;;;;2.45;0.90;;;20.40;31.30;;;;;;5035331;28;20099;-50
2021/01/26 05:19:52;;;;;;;1.73;0.90;;;20.40;31.30;;;;;;5039498;28;20041;-45
2021/01/26 05:22:18;;;;;;;1.52;0.70;;;20.40;31.30;;;;;;5037701;28;20041;-44
2021/01/26 05:24:55;;;;;;;1.92;0.80;;;20.40;31.30;;;;;;5053057;28;20032;-52
2021/01/26 05:27:20;;;;;;;1.70;0.80;;;20.40;31.40;;;;;;5051022;28;20025;-50
2021/01/26 05:29:46;;;;;;;1.92;0.77;;;20.40;31.40;;;;;;5035913;28;20127;-45
2021/01/26 05:32:12;;;;;;;2.17;0.80;;;20.40;31.50;;;;;;5054143;28;20112;-45
2021/01/26 05:34:40;;;;;;;1.73;0.75;;;20.40;31.50;;;;;;5054767;28;20028;-56
2021/01/26 05:37:13;;;;;;;2.13;0.80;;;20.40;31.50;;;;;;5036162;28;20064;-49
2021/01/26 05:39:58;;;;;;;1.65;0.65;;;20.40;31.60;;;;;;5034956;28;20037;-52
2021/01/26 05:42:24;;;;;;;1.45;0.80;;;20.40;31.60;;;;;;5048346;28;20143;-48
2021/01/26 05:44:56;;;;;;;1.48;0.68;;;20.30;31.50;;;;;;5053905;28;20044;-46
2021/01/26 05:47:32;;;;;;;1.70;0.80;;;20.30;31.50;;;;;;5022363;28;20051;-47
2021/01/26 05:49:59;;;;;;;2.20;1.00;;;20.30;31.60;;;;;;5016549;28;20048;-48
2021/01/26 05:52:37;;;;;;;1.98;0.77;;;20.30;31.60;;;;;;5035405;28;20108;-47
2021/01/26 05:55:15;;;;;;;2.08;0.90;;;20.30;31.60;;;;;;5035099;28;20049;-48
2021/01/26 05:57:41;;;;;;;2.78;1.10;;;20.30;31.60;;;;;;5054478;28;20064;-46
2021/01/26 06:00:16;;;;;;;1.92;0.57;;;20.30;31.60;;;;;;5052625;28;20448;-50
2021/01/26 06:02:42;;;;;;;1.85;0.88;;;20.30;31.60;;;;;;5042718;28;20028;-50
2021/01/26 06:05:16;;;;;;;1.65;0.95;;;20.30;31.60;;;;;;5053518;28;20028;-47
2021/01/26 06:07:42;;;;;;;1.50;0.60;;;20.30;31.70;;;;;;5051552;28;20071;-49
2021/01/26 06:10:19;;;;;;;2.97;0.70;;;20.30;31.70;;;;;;5053457;28;20345;-49
2021/01/26 06:12:55;;;;;;;2.60;0.68;;;20.30;31.60;;;;;;5042227;28;20029;-56
2021/01/26 06:15:24;;;;;;;0.88;0.52;;;20.30;31.60;;;;;;5035091;28;20072;-45
2021/01/26 06:17:50;;;;;;;1.42;0.70;;;20.30;31.60;;;;;;5034369;28;20098;-51
2021/01/26 06:20:24;;;;;;;1.67;0.80;;;20.30;31.70;;;;;;5048596;28;20470;-49
2021/01/26 06:22:52;;;;;;;0.95;0.40;;;20.30;31.70;;;;;;5045040;28;20030;-49
2021/01/26 06:25:24;;;;;;;2.97;0.88;;;20.30;31.70;;;;;;5053904;28;20098;-51
2021/01/26 06:28:22;;;;;;;3.05;0.63;;;20.30;31.70;;;;;;5053809;28;20447;-48
2021/01/26 06:31:18;;;;;;;1.60;0.77;;;20.30;31.70;;;;;;5037751;28;20052;-50
2021/01/26 06:34:06;;;;;;;2.22;0.70;;;20.20;31.70;;;;;;5041355;28;20033;-53
2021/01/26 06:36:36;;;;;;;1.75;0.60;;;20.20;31.70;;;;;;5042875;28;20140;-47
2021/01/26 06:39:02;;;;;;;1.30;0.50;;;20.20;31.70;;;;;;5046731;28;20113;-53
2021/01/26 06:42:06;;;;;;;2.08;0.75;;;20.20;31.70;;;;;;5034111;28;20124;-49
2021/01/26 06:44:53;;;;;;;1.48;0.70;;;20.20;31.70;;;;;;5047036;28;20044;-53
2021/01/26 06:47:30;;;;;;;2.53;0.80;;;20.20;31.80;;;;;;5036031;28;20033;-46
2021/01/26 06:50:23;;;;;;;1.05;0.50;;;20.20;31.70;;;;;;5034971;28;20052;-49
2021/01/26 06:53:09;;;;;;;2.28;0.90;;;20.20;31.70;;;;;;5039337;28;20036;-44
2021/01/26 06:55:53;;;;;;;1.45;0.68;;;20.20;31.80;;;;;;5046963;28;20060;-47
2021/01/26 06:58:56;;;;;;;1.10;0.77;;;20.20;31.80;;;;;;5034143;28;20033;-50
2021/01/26 07:02:08;;;;;;;2.05;0.70;;;20.20;31.80;;;;;;5040950;28;20033;-48
2021/01/26 07:05:11;;;;;;;1.63;0.50;;;20.20;31.80;;;;;;5034476;28;20348;-56
2021/01/26 07:08:08;;;;;;;1.67;0.63;;;20.20;31.80;;;;;;5057130;28;20037;-50
2021/01/26 07:10:49;;;;;;;1.80;0.50;;;20.20;31.90;;;;;;5054357;28;20097;-52
2021/01/26 07:13:36;;;;;;;1.42;0.70;;;20.10;31.90;;;;;;5043938;28;20091;-44
2021/01/26 07:16:28;;;;;;;1.50;0.50;;;20.10;31.90;;;;;;5037380;28;20512;-49
2021/01/26 07:19:18;;;;;;;2.25;0.68;;;20.10;31.90;;;;;;4994199;28;20045;-44
2021/01/26 07:21:47;;;;;;;3.22;0.75;;;20.20;32.00;;;;;;5048321;28;20028;-46
2021/01/26 07:24:40;;;;;;;2.45;0.55;;;20.20;32.00;;;;;;5040697;28;20029;-49
2021/01/26 07:27:25;;;;;;;2.08;0.50;;;20.10;31.90;;;;;;5037713;28;20044;-48
2021/01/26 07:29:51;;;;;;;;;;;20.10;31.90;;;;;;5052047;28;20037;-48
2021/01/26 07:32:26;;;;;;;1.60;0.60;;;20.10;32.00;;;;;;5050016;28;19920;-55
2021/01/26 07:35:13;;;;;;;1.58;0.40;;;20.10;32.00;;;;;;5046233;28;20455;-48
2021/01/26 07:37:44;;;;;;;1.75;0.60;;;20.10;32.00;;;;;;5055598;28;20057;-51
2021/01/26 07:40:24;;;;;;;1.35;0.88;;;20.10;32.10;;;;;;5054834;28;20044;-56
2021/01/26 07:43:06;;;;;;;3.03;0.60;;;20.10;32.00;;;;;;5054086;28;20094;-54
2021/01/26 07:45:50;;;;;;;1.40;0.50;;;20.10;32.00;;;;;;5055825;28;20079;-54
2021/01/26 07:48:25;;;;;;;2.90;0.80;;;20.10;32.10;;;;;;5048732;28;20064;-52
2021/01/26 07:50:54;;;;;;;1.40;0.55;;;20.10;32.30;;;;;;5056111;28;20025;-52
2021/01/26 07:53:29;;;;;;;1.88;0.63;;;20.10;32.60;;;;;;5050114;28;20029;-52
2021/01/26 07:55:54;;;;;;;;;;;20.10;32.80;;;;;;5056069;28;20044;-50
2021/01/26 07:58:20;;;;;;;1.75;0.52;;;20.20;33.00;;;;;;5037658;28;19923;-48
2021/01/26 08:00:51;;;;;;;1.05;0.50;;;20.20;32.90;;;;;;5045998;28;20055;-48
2021/01/26 08:03:27;;;;;;;1.42;0.70;;;20.30;33.00;;;;;;5048614;28;20040;-46
2021/01/26 08:05:54;;;;;;;2.35;1.30;;;20.30;33.00;;;;;;5044023;28;20037;-49
2021/01/26 08:08:31;;;;;;;2.80;1.33;;;20.40;33.00;;;;;;5047623;28;20025;-47
2021/01/26 08:11:21;;;;;;;2.50;1.75;;;20.50;32.90;;;;;;5055088;28;20384;-48
2021/01/26 08:13:54;;;;;;;5.47;3.28;;;20.60;32.90;;;;;;5043796;28;20060;-46
2021/01/26 08:16:27;;;;;;;5.47;3.53;;;20.70;32.90;;;;;;5046538;28;20045;-46
2021/01/26 08:18:53;;;;;;;7.93;4.70;;;20.80;32.90;;;;;;5044086;28;20120;-51
2021/01/26 08:21:45;;;;;;;8.70;5.32;;;20.90;32.80;;;;;;5038508;28;20116;-48
2021/01/26 08:24:28;;;;;;;8.68;6.38;;;21.00;32.80;;;;;;5035582;28;20049;-52
2021/01/26 08:27:16;;;;;;;9.20;6.93;;;21.10;32.80;;;;;;5041649;28;20051;-49
2021/01/26 08:29:53;;;;;;;11.07;7.55;;;21.20;32.80;;;;;;5045100;28;20100;-48
2021/01/26 08:32:22;;;;;;;9.02;7.13;;;21.30;32.70;;;;;;5044588;28;20035;-49
2021/01/26 08:35:00;;;;;;;13.02;8.15;;;21.40;32.60;;;;;;5049108;28;20029;-49
2021/01/26 08:37:42;;;;;;;10.95;8.93;;;21.60;33.10;;;;;;5031585;28;20068;-47
2021/01/26 08:40:09;;;;;;;10.85;8.48;;;21.60;32.50;;;;;;5047708;28;20057;-47
2021/01/26 08:42:41;;;;;;;11.70;8.73;;;21.80;32.40;;;;;;5046261;28;20049;-45
2021/01/26 08:45:18;;;;;;;9.63;8.30;;;21.90;32.20;;;;;;5046857;28;20102;-47
2021/01/26 08:47:56;;;;;;;10.52;8.15;;;22.00;32.10;;;;;;5042277;28;20129;-47
2021/01/26 08:50:25;;;;;;;12.38;9.90;;;22.10;32.00;;;;;;5037617;28;20041;-51
2021/01/26 08:52:51;;;;;;;12.63;10.10;;;22.10;32.00;;;;;;5044779;28;20159;-47
2021/01/26 08:55:41;;;;;;;10.48;8.50;;;22.20;31.90;;;;;;5047457;28;20040;-44
2021/01/26 08:58:11;;;;;;;10.80;8.98;;;22.30;31.80;;;;;;5037989;28;20120;-43
2021/01/26 09:00:48;;;;;;;11.05;8.77;;;22.40;31.70;;;;;;5043895;28;20333;-47
2021/01/26 09:03:30;;;;;;;12.02;9.25;;;22.50;31.60;;;;;;5042635;28;20037;-52
2021/01/26 09:06:05;;;;;;;12.18;9.43;;;22.60;31.50;;;;;;5047647;28;20037;-51
2021/01/26 09:08:42;;;;;;;15.40;11.98;;;22.60;31.50;;;;;;5043372;28;20036;-47
2021/01/26 09:11:27;;;;;;;15.63;12.25;;;22.70;31.50;;;;;;5036303;28;20037;-50
2021/01/26 09:14:04;;;;;;;15.77;11.65;;;22.80;31.60;;;;;;5052526;28;20466;-47
2021/01/26 09:16:31;;;;;;;15.15;12.55;;;22.90;31.60;;;;;;5047525;28;20522;-42
2021/01/26 09:19:03;;;;;;;15.43;13.23;;;22.90;31.60;;;;;;5051814;28;20399;-47
2021/01/26 09:21:31;;;;;;;16.27;13.73;;;23.00;31.80;;;;;;5046354;28;20044;-51
2021/01/26 09:24:00;;;;;;;17.67;14.02;;;23.10;32.00;;;;;;5053711;28;20071;-52
2021/01/26 09:26:29;;;;;;;20.35;15.15;;;23.20;32.20;;;;;;5046005;28;20374;-51
2021/01/26 09:28:56;;;;;;;19.88;14.93;;;23.30;32.40;;;;;;5034751;28;20044;-53
2021/01/26 09:31:25;;;;;;;18.13;16.17;;;23.30;32.50;;;;;;5038520;28;20077;-46
2021/01/26 09:34:05;;;;;;;21.08;17.58;;;23.30;32.70;;;;;;5044438;28;20021;-48
2021/01/26 09:36:35;;;;;;;23.75;19.27;;;23.40;33.50;;;;;;5049528;28;20061;-53
2021/01/26 09:39:08;;;;;;;27.08;21.05;;;23.50;33.00;;;;;;5053720;28;20040;-53
2021/01/26 09:41:37;;;;;;;25.48;22.67;;;23.50;33.10;;;;;;5054378;28;20033;-53
2021/01/26 09:44:11;;;;;;;29.48;24.05;;;23.60;33.20;;;;;;5041022;28;20468;-49
2021/01/26 09:46:43;;;;;;;28.10;24.05;;;23.80;33.30;;;;;;5043109;28;20048;-46
2021/01/26 09:49:26;;;;;;;29.83;24.70;;;23.90;33.20;;;;;;5047346;28;20064;-47
2021/01/26 09:52:09;;;;;;;31.77;25.92;;;24.00;33.00;;;;;;5054378;28;20037;-49
2021/01/26 09:54:40;;;;;;;26.05;22.92;;;24.00;32.90;;;;;;5042661;28;20033;-54
2021/01/26 09:57:10;;;;;;;26.33;21.90;;;24.10;32.80;;;;;;5034289;28;20033;-49
2021/01/26 09:59:37;;;;;;;25.25;22.00;;;24.20;32.70;;;;;;5037851;28;20096;-50
2021/01/26 10:02:13;;;;;;;27.65;23.63;;;24.20;32.60;;;;;;5053822;28;20085;-51
2021/01/26 10:04:41;;;;;;;27.45;22.48;;;24.20;32.50;;;;;;5047775;28;20033;-60
2021/01/26 10:07:11;;;;;;;24.50;19.60;;;24.30;32.60;;;;;;5019431;28;20369;-55
2021/01/26 10:09:42;;;;;;;23.23;19.88;;;24.40;32.40;;;;;;5045669;28;20406;-52
2021/01/26 10:12:26;;;;;;;25.90;21.65;;;24.40;32.10;;;;;;5043967;28;20053;-51
2021/01/26 10:15:23;;;;;;;25.80;22.38;;;24.50;31.90;;;;;;5049350;28;20422;-56
2021/01/26 10:18:02;;;;;;;26.38;22.70;;;24.50;31.70;;;;;;5038863;28;20043;-52
2021/01/26 10:20:31;;;;;;;27.75;23.05;;;24.50;31.50;;;;;;5034164;28;20034;-52
2021/01/26 10:23:11;;;;;;;26.88;22.67;;;24.50;31.40;;;;;;5048457;28;20290;-54
2021/01/26 10:25:39;;;;;;;28.48;23.58;;;24.60;31.10;;;;;;5041818;28;20044;-56
2021/01/26 10:28:07;;;;;;;28.10;22.65;;;24.60;31.10;;;;;;5023012;28;20033;-52
2021/01/26 10:30:40;;;;;;;30.00;25.33;;;24.60;31.00;;;;;;5029808;28;20113;-54
2021/01/26 10:33:06;;;;;;;32.03;26.47;;;24.60;30.80;;;;;;5033787;28;20041;-54
2021/01/26 10:35:36;;;;;;;32.65;27.38;;;24.60;30.80;;;;;;5038818;28;20048;-53
2021/01/26 10:38:26;;;;;;;33.63;27.95;;;24.60;30.70;;;;;;5052930;28;20099;-52
2021/01/26 10:41:12;;;;;;;34.70;28.83;;;24.60;30.70;;;;;;5054256;28;20079;-55
2021/01/26 10:43:40;;;;;;;32.03;27.45;;;24.60;30.60;;;;;;5045526;28;20040;-51
2021/01/26 10:46:12;;;;;;;33.80;28.67;;;24.60;30.60;;;;;;5050198;28;20345;-54
2021/01/26 10:48:42;;;;;;;33.53;27.48;;;24.60;30.40;;;;;;5032153;28;20326;-54
2021/01/26 10:51:29;;;;;;;35.20;29.15;;;24.60;30.40;;;;;;5043191;28;20087;-51
2021/01/26 10:53:55;;;;;;;33.70;27.95;;;24.60;30.30;;;;;;5048396;28;20071;-54
2021/01/26 10:56:21;;;;;;;38.35;29.80;;;24.60;30.30;;;;;;5044533;28;20115;-51
2021/01/26 10:58:49;;;;;;;34.78;28.95;;;24.60;30.30;;;;;;5045125;28;20033;-57
2021/01/26 11:01:22;;;;;;;34.92;27.98;;;24.60;30.20;;;;;;5036850;28;20029;-52
2021/01/26 11:03:49;;;;;;;35.20;28.70;;;24.60;30.20;;;;;;5042790;28;20301;-52
2021/01/26 11:06:15;;;;;;;33.17;28.40;;;24.50;30.00;;;;;;5042068;28;20029;-52
2021/01/26 11:08:43;;;;;;;35.22;28.33;;;24.50;30.00;;;;;;5052038;28;20085;-51
2021/01/26 11:11:12;;;;;;;34.05;28.77;;;24.50;30.00;;;;;;5037190;28;20496;-54
2021/01/26 11:13:38;;;;;;;33.72;28.40;;;24.50;30.00;;;;;;5054493;28;20372;-52
2021/01/26 11:16:04;;;;;;;35.33;28.58;;;24.50;30.00;;;;;;5044129;28;20096;-51
2021/01/26 11:18:30;;;;;;;34.80;28.67;;;24.40;30.00;;;;;;5048513;28;20037;-53
2021/01/26 11:20:56;;;;;;;38.83;31.27;;;24.40;30.00;;;;;;5051183;28;20459;-53
2021/01/26 11:23:22;;;;;;;43.22;33.90;;;24.30;30.20;;;;;;5043947;28;20440;-58
2021/01/26 11:25:47;;;;;;;42.97;34.15;;;24.30;30.60;;;;;;5036726;28;20126;-50
2021/01/26 11:28:13;;;;;;;41.78;31.67;;;24.30;30.80;;;;;;5053579;28;20154;-52
2021/01/26 11:30:39;;;;;;;39.90;33.45;;;24.30;30.80;;;;;;5056366;28;20109;-51
2021/01/26 11:33:05;;;;;;;41.83;33.50;;;24.20;30.80;;;;;;5054611;28;20040;-49
2021/01/26 11:35:32;;;;;;;42.03;32.85;;;24.20;30.90;;;;;;5037609;28;20121;-56
2021/01/26 11:37:58;;;;;;;39.08;33.13;;;24.20;30.90;;;;;;5041441;28;20054;-49
2021/01/26 11:40:25;;;;;;;40.13;31.67;;;24.20;30.90;;;;;;5031979;28;20033;-48
2021/01/26 11:42:51;;;;;;;40.47;31.42;;;24.10;30.70;;;;;;5047025;28;20325;-52
2021/01/26 11:45:22;;;;;;;38.50;31.42;;;24.10;30.70;;;;;;5048113;28;20025;-55
2021/01/26 11:47:47;;;;;;;38.60;31.67;;;24.10;30.70;;;;;;5055888;28;20043;-49
2021/01/26 11:50:15;;;;;;;41.08;32.88;;;24.10;30.70;;;;;;5043651;28;20026;-51
2021/01/26 11:52:41;;;;;;;41.13;33.08;;;24.00;30.60;;;;;;5035892;28;20037;-51
2021/01/26 11:55:10;;;;;;;38.58;32.05;;;24.00;30.60;;;;;;5044556;28;20055;-51
2021/01/26 11:57:36;;;;;;;41.00;32.00;;;24.00;30.60;;;;;;5041731;28;20052;-56
2021/01/26 12:00:14;;;;;;;40.72;33.13;;;24.00;30.50;;;;;;5051453;28;20104;-54
2021/01/26 12:02:40;;;;;;;43.00;35.00;;;23.90;30.60;;;;;;5030259;28;20025;-58
2021/01/26 12:05:07;;;;;;;46.45;37.58;;;23.90;30.90;;;;;;5054827;28;20032;-51
2021/01/26 12:07:33;;;;;;;48.83;39.28;;;23.90;31.20;;;;;;5036337;28;20028;-54
2021/01/26 12:09:59;;;;;;;45.70;38.83;;;23.90;31.50;;;;;;5051162;28;20033;-58
2021/01/26 12:12:25;;;;;;;49.20;39.90;;;23.90;31.60;;;;;;5052567;28;20056;-55
2021/01/26 12:14:51;;;;;;;49.10;40.17;;;23.90;31.80;;;;;;5042502;28;20116;-55
2021/01/26 12:17:16;;;;;;;51.25;40.55;;;23.90;32.00;;;;;;5046231;28;20024;-56
2021/01/26 12:19:42;;;;;;;52.83;43.13;;;23.90;32.10;;;;;;5045561;28;20443;-59
2021/01/26 12:22:08;;;;;;;52.40;42.72;;;24.00;32.20;;;;;;5048604;28;20482;-55
2021/01/26 12:24:34;;;;;;;52.03;41.03;;;24.00;32.40;;;;;;5046110;28;20033;-50
2021/01/26 12:27:00;;;;;;;50.88;40.75;;;24.00;32.50;;;;;;5044456;28;20029;-55
2021/01/26 12:29:25;;;;;;;48.55;39.83;;;24.00;32.50;;;;;;5045976;28;20045;-58
2021/01/26 12:31:51;;;;;;;48.22;39.38;;;24.00;32.40;;;;;;5041439;28;20524;-57
2021/01/26 12:34:17;;;;;;;44.30;36.63;;;24.00;32.40;;;;;;5042022;28;20025;-56
2021/01/26 12:36:43;;;;;;;40.97;34.38;;;24.00;32.50;;;;;;5044913;28;20134;-56
2021/01/26 12:39:08;;;;;;;47.58;36.40;;;24.10;32.50;;;;;;5041234;28;20053;-52
2021/01/26 12:41:34;;;;;;;46.20;35.67;;;24.00;32.60;;;;;;5045295;28;20036;-58
2021/01/26 12:44:02;;;;;;;45.75;37.58;;;24.10;32.60;;;;;;5042416;28;20028;-53
2021/01/26 12:46:28;;;;;;;49.65;38.55;;;24.00;32.50;;;;;;5039899;28;20086;-57
2021/01/26 12:48:53;;;;;;;51.85;41.45;;;24.00;32.50;;;;;;5025890;28;20036;-56
2021/01/26 12:51:20;;;;;;;48.97;40.10;;;24.00;32.60;;;;;;5042685;28;20388;-61
2021/01/26 12:53:46;;;;;;;46.13;37.83;;;24.00;32.70;;;;;;5027012;28;20365;-57
2021/01/26 12:56:12;;;;;;;45.28;34.90;;;24.00;32.70;;;;;;5021717;28;20045;-57
2021/01/26 12:58:38;;;;;;;43.25;36.58;;;24.00;32.50;;;;;;5034346;28;20112;-59
2021/01/26 13:01:04;;;;;;;47.70;37.60;;;24.00;32.50;;;;;;5034396;28;20452;-57
2021/01/26 13:03:29;;;;;;;49.60;40.58;;;24.00;32.50;;;;;;5034291;28;20344;-53
2021/01/26 13:05:56;;;;;;;50.88;42.15;;;24.00;32.60;;;;;;5034549;28;20031;-55
2021/01/26 13:08:22;;;;;;;53.75;42.85;;;24.00;32.60;;;;;;5045313;28;20382;-59
2021/01/26 13:10:48;;;;;;;51.83;42.83;;;24.00;32.60;;;;;;5054784;28;20067;-55
2021/01/26 13:13:14;;;;;;;53.80;41.88;;;24.00;32.70;;;;;;5054612;28;20033;-54